createdAt,value
2022-12-18T00:05:01.910Z,-7.38
2022-12-18T00:10:05.444Z,-7.39
2022-12-18T00:15:09.992Z,-7.39
2022-12-18T00:20:12.866Z,-7.37
2022-12-18T00:25:15.611Z,-7.35
2022-12-18T00:30:19.827Z,-7.36
2022-12-18T00:35:22.364Z,-7.37
2022-12-18T00:40:24.867Z,-7.36
2022-12-18T00:45:30.691Z,-7.35
2022-12-18T00:50:33.213Z,-7.33
2022-12-18T00:55:36.483Z,-7.31
2022-12-18T01:00:40.471Z,-7.30
2022-12-18T01:05:43.806Z,-7.29
2022-12-18T01:10:46.382Z,-7.26
2022-12-18T01:15:52.049Z,-7.25
2022-12-18T01:20:54.553Z,-7.23
2022-12-18T01:25:57.059Z,-7.21
2022-12-18T01:31:11.574Z,-7.22
2022-12-18T01:36:18.596Z,-7.20
2022-12-18T01:41:23.274Z,-7.24
2022-12-18T01:46:28.800Z,-7.27
2022-12-18T01:51:32.417Z,-7.26
2022-12-18T01:56:34.920Z,-7.24
2022-12-18T02:01:40.022Z,-7.22
2022-12-18T02:06:43.837Z,-7.21
2022-12-18T02:11:52.563Z,-7.22
2022-12-18T02:17:02.364Z,-7.21
2022-12-18T02:22:16.479Z,-7.18
2022-12-18T02:27:20.793Z,-7.16
2022-12-18T02:32:28.627Z,-7.14
2022-12-18T02:37:33.716Z,-7.15
2022-12-18T02:42:37.500Z,-7.15
2022-12-18T02:47:45.447Z,-7.12
2022-12-18T02:52:57.686Z,-7.13
2022-12-18T02:58:07.184Z,-7.16
2022-12-18T03:03:17.917Z,-7.20
2022-12-18T03:08:24.144Z,-7.21
2022-12-18T03:13:32.655Z,-7.23
2022-12-18T03:18:39.729Z,-7.23
2022-12-18T03:23:46.229Z,-7.26
2022-12-18T03:28:53.228Z,-7.29
2022-12-18T03:33:59.688Z,-7.29
2022-12-18T03:39:02.255Z,-7.31
2022-12-18T03:44:12.793Z,-7.34
2022-12-18T03:49:23.394Z,-7.34
2022-12-18T03:54:28.954Z,-7.32
2022-12-18T03:59:34.814Z,-7.34
2022-12-18T04:04:38.862Z,-7.36
2022-12-18T04:09:43.655Z,-7.36
2022-12-18T04:14:47.491Z,-7.36
2022-12-18T04:19:50.028Z,-7.36
2022-12-18T04:24:52.480Z,-7.37
2022-12-18T04:29:56.261Z,-7.42
2022-12-18T04:34:58.709Z,-7.44
2022-12-18T04:40:01.157Z,-7.47
2022-12-18T04:45:05.845Z,-7.49
2022-12-18T04:50:09.067Z,-7.51
2022-12-18T04:55:11.552Z,-7.55
2022-12-18T05:00:16.466Z,-7.56
2022-12-18T05:05:19.142Z,-7.58
2022-12-18T05:10:21.624Z,-7.58
2022-12-18T05:15:25.710Z,-7.60
2022-12-18T05:20:29.581Z,-7.60
2022-12-18T05:25:32.094Z,-7.59
2022-12-18T05:30:36.171Z,-7.59
2022-12-18T05:35:38.644Z,-7.55
2022-12-18T05:40:43.691Z,-7.55
2022-12-18T05:45:47.683Z,-7.61
2022-12-18T05:50:51.953Z,-7.68
2022-12-18T05:55:54.404Z,-7.73
2022-12-18T06:00:58.552Z,-7.75
2022-12-18T06:06:01.015Z,-7.77
2022-12-18T06:11:03.464Z,-7.76
2022-12-18T06:16:08.014Z,-7.76
2022-12-18T06:21:10.676Z,-7.73
2022-12-18T06:26:14.752Z,-7.74
2022-12-18T06:31:18.592Z,-7.75
2022-12-18T06:36:21.851Z,-7.74
2022-12-18T06:41:24.362Z,-7.71
2022-12-18T06:46:28.299Z,-7.70
2022-12-18T06:51:30.893Z,-7.71
2022-12-18T06:56:33.525Z,-7.75
2022-12-18T07:01:37.617Z,-7.78
2022-12-18T07:06:40.128Z,-7.84
2022-12-18T07:11:42.638Z,-7.82
2022-12-18T07:16:46.485Z,-7.79
2022-12-18T07:21:48.942Z,-7.79
2022-12-18T07:26:51.509Z,-7.79
2022-12-18T07:31:55.378Z,-7.77
2022-12-18T07:36:57.881Z,-7.78
2022-12-18T07:42:18.645Z,-7.77
2022-12-18T07:47:22.634Z,-7.76
2022-12-18T07:52:26.326Z,-7.74
2022-12-18T08:02:52.818Z,-7.73
2022-12-18T08:07:56.982Z,-7.70
2022-12-18T08:13:04.618Z,-7.67
2022-12-18T08:18:13.889Z,-7.64
2022-12-18T08:23:16.832Z,-7.57
2022-12-18T08:28:19.511Z,-7.53
2022-12-18T08:33:23.294Z,-7.48
2022-12-18T08:38:25.765Z,-7.42
2022-12-18T08:43:46.317Z,-7.34
2022-12-18T08:48:52.774Z,-7.24
2022-12-18T08:53:55.246Z,-7.14
2022-12-18T08:58:58.322Z,-7.04
2022-12-18T09:04:02.160Z,-6.93
2022-12-18T09:09:05.776Z,-6.84
2022-12-18T09:14:10.070Z,-6.73
2022-12-18T09:19:14.873Z,-6.65
2022-12-18T09:24:18.238Z,-6.61
2022-12-18T09:29:22.074Z,-6.58
2022-12-18T09:34:57.449Z,-6.52
2022-12-18T09:40:02.174Z,-6.41
2022-12-18T09:45:07.379Z,-6.33
2022-12-18T09:50:26.258Z,-6.26
2022-12-18T09:55:38.687Z,-6.18
2022-12-18T10:00:42.271Z,-6.12
2022-12-18T10:06:00.772Z,-6.10
2022-12-18T10:11:16.980Z,-6.02
2022-12-18T10:16:27.122Z,-5.91
2022-12-18T10:21:40.333Z,-5.82
2022-12-18T10:26:48.710Z,-5.73
2022-12-18T10:31:51.754Z,-5.67
2022-12-18T10:43:08.890Z,-5.63
2022-12-18T10:48:23.261Z,-5.59
2022-12-18T10:53:31.199Z,-5.53
2022-12-18T10:58:38.238Z,-5.46
2022-12-18T11:10:44.916Z,-5.33
2022-12-18T11:28:30.469Z,-5.23
2022-12-18T11:34:05.142Z,-5.21
2022-12-18T11:39:20.073Z,-5.19
2022-12-18T11:50:18.133Z,-5.09
2022-12-18T11:55:31.600Z,-5.04
2022-12-18T12:00:44.901Z,-4.94
2022-12-18T12:06:03.498Z,-4.86
2022-12-18T12:11:41.736Z,-4.80
2022-12-18T12:24:16.951Z,-4.66
2022-12-18T12:35:56.359Z,-4.42
2022-12-18T12:41:07.914Z,-4.35
2022-12-18T13:06:25.054Z,-4.26
2022-12-18T13:12:02.932Z,-4.25
2022-12-18T13:36:48.855Z,-4.18
2022-12-18T13:48:21.707Z,-4.19
2022-12-18T13:53:43.041Z,-4.18
2022-12-18T13:58:47.064Z,-4.24
2022-12-18T16:16:47.990Z,-5.16
2022-12-18T18:35:56.037Z,-5.41
2022-12-18T18:40:59.952Z,-5.37
2022-12-18T18:51:20.165Z,-5.28
2022-12-18T18:56:56.457Z,-5.24
2022-12-18T19:01:50.293Z,-5.20
2022-12-18T19:06:54.313Z,-5.15
2022-12-18T19:12:14.386Z,-5.13
2022-12-18T19:17:16.985Z,-5.13
2022-12-18T19:22:20.992Z,-5.11
2022-12-18T19:27:23.740Z,-5.07
2022-12-18T19:32:26.428Z,-5.06
2022-12-18T19:37:30.303Z,-5.03
2022-12-18T19:42:35.491Z,-5.01
2022-12-18T19:47:38.338Z,-4.99
2022-12-18T19:52:42.214Z,-5.00
2022-12-18T19:57:44.954Z,-5.00
2022-12-18T20:02:47.612Z,-5.01
2022-12-18T20:07:51.840Z,-5.02
2022-12-18T20:12:54.732Z,-5.02
2022-12-18T20:17:58.010Z,-5.04
2022-12-18T20:23:02.999Z,-5.04
2022-12-18T20:28:06.155Z,-5.06
2022-12-18T20:33:08.724Z,-5.02
2022-12-18T20:38:12.638Z,-5.00
2022-12-18T20:43:17.518Z,-4.97
2022-12-18T20:48:25.053Z,-4.94
2022-12-18T20:53:30.563Z,-4.90
2022-12-18T20:58:33.108Z,-4.87
2022-12-18T21:03:35.823Z,-4.83
2022-12-18T21:08:40.190Z,-4.78
2022-12-18T21:13:42.717Z,-4.73
2022-12-18T21:18:45.189Z,-4.68
2022-12-18T21:23:49.302Z,-4.64
2022-12-18T21:28:55.020Z,-4.59
2022-12-18T21:34:01.869Z,-4.57
2022-12-18T21:39:06.333Z,-4.52
2022-12-18T21:44:09.721Z,-4.47
2022-12-18T21:49:15.044Z,-4.42
2022-12-18T21:54:19.462Z,-4.41
2022-12-18T21:59:23.392Z,-4.37
2022-12-18T22:04:26.408Z,-4.34
2022-12-18T22:09:30.806Z,-4.30
2022-12-18T22:14:33.612Z,-4.27
2022-12-18T22:19:42.672Z,-4.25
2022-12-18T22:24:46.955Z,-4.24
2022-12-18T22:30:08.188Z,-4.22
2022-12-18T22:35:15.742Z,-4.20
2022-12-18T22:40:24.648Z,-4.18
2022-12-18T22:45:28.527Z,-4.17
2022-12-18T22:50:33.577Z,-4.17
2022-12-18T22:55:37.389Z,-4.16
2022-12-18T23:00:41.094Z,-4.14
2022-12-18T23:05:43.577Z,-4.16
2022-12-18T23:10:47.400Z,-4.19
2022-12-18T23:15:50.035Z,-4.20
2022-12-18T23:20:52.691Z,-4.18
2022-12-18T23:26:02.996Z,-4.19
2022-12-18T23:31:07.309Z,-4.19
2022-12-18T23:36:10.367Z,-4.16
2022-12-18T23:41:16.656Z,-4.09
2022-12-18T23:46:20.835Z,-4.05
2022-12-18T23:51:25.552Z,-4.01
2022-12-18T23:56:31.121Z,-3.94
